Flight Track Log - Related Links

Times and Time Zones

All times are in EDT time to prevent confusion due to time zone crossing. See the DAL657 flight status page for this flight to view local times or setup timezone preferences in your user account.

Time Position Orientation Groundspeed Altitude Reporting Facility
EDT Latitude Longitude Course Direction KTS MPH feet Rate Location/Type
Sun 02:59:47 PM 32.3561 -64.6394 247° West 439 505 1,400  Level New York Center
Sun 03:04:47 PM 32.2869 -64.8356 272° West 312 359 12,300 2,111 Climbing New York Center
Sun 03:05:48 PM 32.2894 -64.9286 272° West 343 395 14,100 2,529 Climbing New York Center
Sun 03:06:48 PM 32.2953 -65.0900 272° West 379 436 17,400 2,797 Climbing New York Center
Sun 03:07:46 PM 32.2989 -65.2100 272° West 395 455 19,600 2,168 Climbing New York Center
Sun 03:08:47 PM 32.3036 -65.3594 272° West 413 475 21,700 1,967 Climbing New York Center
Sun 03:09:48 PM 32.3078 -65.4967 272° West 421 484 23,600 1,934 Climbing New York Center
Sun 03:10:48 PM 32.3119 -65.6411 271° West 426 490 25,600 1,686 Climbing New York Center
Sun 03:11:49 PM 32.3139 -65.7831 273° West 436 502 27,000 1,576 Climbing New York Center
Sun 03:12:46 PM 32.3194 -65.9178 271° West 441 507 28,700 1,744 Climbing New York Center
Sun 03:13:46 PM 32.3214 -66.0747 272° West 441 507 30,400 1,636 Climbing New York Center
Sun 03:14:47 PM 32.3250 -66.2169 273° West 441 507 32,000 1,721 Climbing New York Center
Sun 03:15:48 PM 32.3297 -66.3467 271° West 441 507 33,900 1,714 Climbing New York Center
Sun 03:16:46 PM 32.3311 -66.4964 272° West 431 496 35,400 1,261 Climbing New York Center
Sun 03:17:47 PM 32.3356 -66.6189 270° West 418 481 36,400 1,033 Climbing New York Center
Sun 03:18:48 PM 32.3364 -66.7661 271° West 418 481 37,500 893 Climbing New York Center
Sun 03:19:48 PM 32.3386 -66.9008 271° West 418 481 38,200 763 Climbing New York Center
Sun 03:20:46 PM 32.3403 -67.0211 271° West 418 481 39,000 407 Climbing New York Center
Sun 03:21:46 PM 32.3431 -67.1706 271° West 418 481 39,000  Level New York Center
Sun 03:22:47 PM 32.3447 -67.3031 271° West 418 481 39,000  Level New York Center
Sun 03:23:48 PM 32.3461 -67.4233 273° West 412 474 39,000  Level New York Center
Sun 03:24:49 PM 32.3522 -67.5681 271° West 412 474 39,000  Level New York Center
Sun 03:25:46 PM 32.3533 -67.6906 271° West 407 468 39,000  Level New York Center
Sun 03:26:47 PM 32.3547 -67.8356 268° West 407 468 39,000  Level New York Center
Sun 03:27:49 PM 32.3517 -67.9681 272° West 407 468 39,000  Level New York Center
Sun 03:28:46 PM 32.3544 -68.0883 269° West 401 461 39,000  Level New York Center
Sun 03:29:46 PM 32.3514 -68.2308 269° West 401 461 39,000  Level New York Center
Sun 03:30:47 PM 32.3500 -68.3683 90° East 410 472 39,000  Level New York Center
Sun 03:32:05 PM 32.3500 -68.2333 269° West 424 488 39,000 20 Level New York Oceanic (ODAPS)
Sun 04:19:58 PM 32.0203 -75.1819 284° West 481 554 40,000 19 Climbing New York Center
Sun 04:25:00 PM 32.1622 -75.8383 284° West 418 481 40,000  Level New York Center
Sun 04:26:01 PM 32.1897 -75.9722 281° West 418 481 40,000  Level New York Center
Sun 04:26:58 PM 32.2125 -76.1158 288° West 424 488 40,000  Level New York Center
Sun 04:27:58 PM 32.2461 -76.2406 283° West 430 495 40,000  Level New York Center
Sun 04:30:23 PM 32.3086 -76.5567 284° West 431 496 40,000  Level Jacksonville Center
Sun 04:31:23 PM 32.3386 -76.7019 285° West 431 496 40,000  Level Jacksonville Center
Sun 04:32:23 PM 32.3681 -76.8353 282° West 424 488 40,000  Level Jacksonville Center
Sun 04:33:23 PM 32.3936 -76.9786 284° West 431 496 40,000  Level Jacksonville Center
Sun 04:34:23 PM 32.4231 -77.1169 282° West 439 505 40,000  Level Jacksonville Center
Sun 04:35:23 PM 32.4481 -77.2581 284° West 444 511 40,000  Level Jacksonville Center
Sun 04:36:23 PM 32.4775 -77.4014 283° West 449 517 40,000  Level Jacksonville Center
Sun 04:37:23 PM 32.5044 -77.5453 282° West 449 517 40,000  Level Jacksonville Center
Sun 04:38:23 PM 32.5314 -77.6914 283° West 449 517 40,000  Level Jacksonville Center
Sun 04:39:23 PM 32.5578 -77.8278 283° West 443 510 40,000  Level Jacksonville Center
Sun 04:40:23 PM 32.5842 -77.9694 284° West 443 510 40,000  Level Jacksonville Center
Sun 04:41:23 PM 32.6125 -78.1083 282° West 448 516 40,000  Level Jacksonville Center
Sun 04:42:23 PM 32.6389 -78.2525 283° West 448 516 40,000  Level Jacksonville Center
Sun 04:43:23 PM 32.6667 -78.3917 282° West 443 510 40,000  Level Jacksonville Center
Sun 04:44:23 PM 32.6928 -78.5336 285° West 443 510 40,000  Level Jacksonville Center
Sun 04:45:23 PM 32.7222 -78.6678 282° West 443 510 40,000  Level Jacksonville Center
Sun 04:46:23 PM 32.7478 -78.8100 282° West 443 510 40,000  Level Jacksonville Center
Sun 04:47:23 PM 32.7731 -78.9519 283° West 443 510 40,000  Level Jacksonville Center
Sun 04:48:23 PM 32.8006 -79.0942 282° West 443 510 40,000  Level Jacksonville Center
Sun 04:49:23 PM 32.8256 -79.2364 282° West 448 516 40,000  Level Jacksonville Center
Sun 04:50:23 PM 32.8506 -79.3789 282° West 448 516 40,000  Level Jacksonville Center
Sun 04:52:23 PM 32.9019 -79.6664 281° West 448 516 40,000 -33 Level Jacksonville Center
Sun 04:53:23 PM 32.9264 -79.8114 282° West 448 516 39,900  Descending Jacksonville Center
Sun 04:54:23 PM 32.9506 -79.9517 279° West 448 516 40,000 50 Climbing Jacksonville Center
Sun 04:55:23 PM 32.9731 -80.1169 275° West 448 516 40,000  Level Jacksonville Center
Sun 04:56:23 PM 32.9825 -80.2603 273° West 455 524 40,000 -450 Level Jacksonville Center
Sun 04:57:23 PM 32.9897 -80.4036 273° West 450 518 39,100 -1,000 Descending Jacksonville Center
Sun 04:58:23 PM 32.9967 -80.5544 273° West 450 518 38,000 -1,000 Descending Jacksonville Center
Sun 04:59:23 PM 33.0033 -80.6956 272° West 444 511 37,100 -950 Descending Jacksonville Center
Sun 05:00:23 PM 33.0081 -80.8442 273° West 444 511 36,100 -550 Descending Jacksonville Center
Sun 05:01:23 PM 33.0144 -80.9900 273° West 444 511 36,000 -50 Descending Jacksonville Center
Sun 05:02:23 PM 33.0208 -81.1386 271° West 444 511 36,000  Level Jacksonville Center
Sun 05:04:40 PM 33.0242 -81.4622 272° West 457 526 36,000  Level Atlanta Center
Sun 05:05:40 PM 33.0292 -81.6108 273° West 457 526 36,000  Level Atlanta Center
Sun 05:06:40 PM 33.0361 -81.7567 271° West 457 526 36,000  Level Atlanta Center
Sun 05:07:40 PM 33.0389 -81.9028 272° West 457 526 36,000 -300 Level Atlanta Center
Sun 05:08:40 PM 33.0433 -82.0439 275° West 446 513 35,400 -800 Descending Atlanta Center
Sun 05:09:40 PM 33.0539 -82.1850 277° West 436 502 34,400 -1,000 Descending Atlanta Center
Sun 05:10:40 PM 33.0683 -82.3258 278° West 436 502 33,400 -950 Descending Atlanta Center
Sun 05:11:40 PM 33.0850 -82.4669 277° West 436 502 32,500 -900 Descending Atlanta Center
Sun 05:12:40 PM 33.0992 -82.6131 277° West 441 507 31,600 -950 Descending Atlanta Center
Sun 05:13:40 PM 33.1133 -82.7617 277° West 441 507 30,600 -1,000 Descending Atlanta Center
Sun 05:14:40 PM 33.1294 -82.9103 278° West 441 507 29,600 -1,600 Descending Atlanta Center
Sun 05:15:40 PM 33.1475 -83.0736 276° West 447 514 27,400 -2,200 Descending Atlanta Center
Sun 05:16:40 PM 33.1589 -83.2000 276° West 441 507 25,200 -2,350 Descending Atlanta Center
Sun 05:17:40 PM 33.1722 -83.3414 277° West 435 501 22,700 -2,500 Descending Atlanta Center
Sun 05:18:40 PM 33.1856 -83.4778 277° West 423 487 20,200 -2,450 Descending Atlanta Center
Sun 05:19:40 PM 33.1986 -83.6044 276° West 406 467 17,800 -2,450 Descending Atlanta Center
Sun 05:20:40 PM 33.2094 -83.7308 288° West 396 456 15,300 -2,100 Descending Atlanta Center
Sun 05:21:40 PM 33.2408 -83.8475 308° West 373 429 13,600 -1,650 Descending Atlanta Center
Sun 05:22:40 PM 33.3078 -83.9494 308° West 356 410 12,000 -800 Descending Atlanta Center
Sun 05:23:40 PM 33.3664 -84.0389 308° West 351 404 12,000  Level Atlanta Center
Sun 05:24:40 PM 33.4269 -84.1308 308° West 345 397 12,000  Level Atlanta Center
Sun 05:26:40 PM 33.5372 -84.3031 276° West 329 379 12,000 -467 Level Atlanta Center
Sun 05:27:40 PM 33.5453 -84.3978 270° West 289 333 10,600 -2,050 Descending Atlanta Center
Sun 05:28:40 PM 33.5450 -84.4900 270° West 275 316 7,900 -2,350 Descending Atlanta Center
Sun 05:29:40 PM 33.5447 -84.5697 351° North 270 311 5,900 -1,066 Descending Atlanta Center
Sun 05:32:59 PM 33.6167 -84.5833 73° East 190 219 3,300 -838 Descending Atlanta TRACON
Sun 05:34:05 PM 33.6333 -84.5167 90° East 180 207 2,200 -905 Descending Atlanta TRACON
Sun 05:35:05 PM 33.6333 -84.4667 90° East 141 162 1,400 -800 Descending Atlanta TRACON

Login

Don't have an account? Register now (free) for customized features, flight alerts, and more!